MFQ weather

Maradi Airport
Maradi, Maradi Region, Niger

Public forecast

Using degrees Celsius for public forecast. Weather courtesy of forecast.io.

METAR (pilot weather report)

Retrieved 2019/04/18 14:00 UTC (43 minutes ago):

DRRM 181400Z 08014KT 6000 NSC 39/M10 Q1009

TAF (pilot weather forecast)

Closest forecast is Zinder Airport, 109.6 nm (203.0 km) E. Retrieved 2019/04/18 12:21 UTC (2 hours ago):

TAF DRZR 181100Z 1812/1912 08010KT 3000 DU NSC BECMG 1813/1815 6000 NSW BECMG 1902/1904 3000 DU TEMPO 1906/1910 1500